Airfield :
LOGIN :

Register | Disclaimer

   EN    FR    IT 

 










Legend :    VFR   Marginal VFR   IFR   Intensive IFR   Very Intensive IFR
Visi :
Ceiling :
>= 8 km
>= 3000ft
5 to 8 km
1000 to 3000 ft
1500m to 5 km
500 to 1000 ft
800 to 1500m
200 to 500 ft
< 800m
< 200 ft
Symbols :   Thunderstorms  Fog  Heavy snow  Heavy precipitations  Wind > 20 kt
SIGMETs :     Misc.  Thunderstorms  Icing  Turbulence  Mountain Waves  Volcanic Ashes






- Airport Elevation : 751 ft
- IATA code : ENC


LFSN - Nancy Essey

CURRENT METAR :
  • 011300Z AUTO 29008KT 250V330 9999 FEW049 SCT084 22/10 Q1011

EXPIRED METARs :
  • 011230Z AUTO 28009KT 250V350 9999 FEW049 SCT086 22/11 Q1012
  • 011200Z AUTO 30010KT 260V340 9999 BKN048 BKN080 21/10 Q1012
  • 011130Z AUTO 31010KT 9999 SCT045/// SCT054/// ///TCU 21/10 Q1012
  • 011100Z AUTO 27008KT 230V310 9999 FEW039/// SCT045/// ///CB 20/11 Q1012
  • 011030Z AUTO 28008KT 230V320 9999 BKN037/// BKN048/// BKN058/// ///CB 20/12 Q1012

Expired Forecast.



MET'MAP, your aeronautical weather chart ! - Copyright ORBIFLY December 2007 - Disclaimer

ORBIFLY MET'MAP TEAM :

Programming & Development : Alexandra Zaïnal
Concept & original design : Baudouin d'Aumeries
Assistance for programming : Marc-Olivier Méhu
Technical & hardware support : Manuel Goepfert

Contact : metmap@orbifly.com




SOURCES & CREDITS :

   NOAA